createdAt,value
2024-03-10T00:00:39.496Z,98.23
2024-03-10T00:01:39.499Z,99.52
2024-03-10T00:02:39.564Z,98.59
2024-03-10T00:03:39.603Z,99.44
2024-03-10T00:04:39.728Z,98.68
2024-03-10T00:05:39.726Z,98.60
2024-03-10T00:06:39.833Z,99.62
2024-03-10T00:07:39.837Z,95.62
2024-03-10T00:08:39.934Z,98.71
2024-03-10T00:09:39.980Z,98.11
2024-03-10T00:10:40.058Z,96.58
2024-03-10T00:11:40.163Z,97.26
2024-03-10T00:12:40.170Z,98.42
2024-03-10T00:13:40.237Z,98.30
2024-03-10T00:14:40.288Z,98.37
2024-03-10T00:15:40.363Z,99.89
2024-03-10T00:16:40.444Z,98.63
2024-03-10T00:17:40.547Z,95.41
2024-03-10T00:18:40.582Z,99.20
2024-03-10T00:19:40.649Z,97.73
2024-03-10T00:20:40.659Z,98.82
2024-03-10T00:21:40.746Z,96.96
2024-03-10T00:22:40.815Z,99.44
2024-03-10T00:23:40.937Z,99.41
2024-03-10T00:24:40.854Z,99.09
2024-03-10T00:25:40.982Z,99.94
2024-03-10T00:26:41.032Z,101.20
2024-03-10T00:27:41.086Z,99.29
2024-03-10T00:28:41.150Z,100.49
2024-03-10T00:29:41.201Z,98.65
2024-03-10T00:30:41.260Z,97.90
2024-03-10T00:31:41.341Z,97.95
2024-03-10T00:32:41.474Z,96.52
2024-03-10T00:33:41.449Z,98.87
2024-03-10T00:34:41.504Z,100.30
2024-03-10T00:35:41.565Z,98.29
2024-03-10T00:36:41.616Z,98.35
2024-03-10T00:37:41.680Z,99.31
2024-03-10T00:38:41.705Z,100.36
2024-03-10T00:39:41.758Z,97.60
2024-03-10T00:40:41.870Z,101.28
2024-03-10T00:41:41.834Z,98.70
2024-03-10T00:42:41.913Z,98.99
2024-03-10T00:43:42.025Z,100.32
2024-03-10T00:44:42.027Z,98.00
2024-03-10T00:45:42.084Z,98.66
2024-03-10T00:46:42.203Z,97.97
2024-03-10T00:47:42.297Z,98.38
2024-03-10T00:48:42.260Z,98.91
2024-03-10T00:49:42.375Z,98.18
2024-03-10T00:50:42.459Z,98.25
2024-03-10T00:51:42.448Z,98.36
2024-03-10T00:52:42.727Z,97.94
2024-03-10T00:53:42.542Z,98.24
2024-03-10T00:54:42.617Z,98.34
2024-03-10T00:55:42.687Z,98.75
2024-03-10T00:56:42.741Z,98.22
2024-03-10T00:57:42.773Z,99.42
2024-03-10T00:58:42.942Z,100.42
2024-03-10T00:59:42.895Z,99.25
2024-03-10T01:00:42.966Z,101.37
2024-03-10T01:01:43.068Z,98.72
2024-03-10T01:02:43.072Z,99.88
2024-03-10T01:03:43.131Z,98.45
2024-03-10T01:04:43.241Z,100.15
2024-03-10T01:05:43.234Z,99.30
2024-03-10T01:06:44.866Z,99.66
2024-03-10T01:07:43.406Z,99.83
2024-03-10T01:08:43.363Z,98.19
2024-03-10T01:09:43.330Z,99.96
2024-03-10T01:10:43.366Z,99.69
2024-03-10T01:11:43.474Z,100.12
2024-03-10T01:12:43.298Z,101.34
2024-03-10T01:13:43.301Z,99.46
2024-03-10T01:14:43.301Z,101.83
2024-03-10T01:15:43.312Z,102.10
2024-03-10T01:16:43.477Z,97.64
2024-03-10T01:17:43.399Z,99.12
2024-03-10T01:18:43.353Z,100.31
2024-03-10T01:19:43.365Z,101.30
2024-03-10T01:20:43.323Z,100.39
2024-03-10T01:21:43.356Z,98.29
2024-03-10T01:22:43.345Z,101.00
2024-03-10T01:23:43.316Z,100.73
2024-03-10T01:24:43.304Z,102.43
2024-03-10T01:25:43.409Z,102.87
2024-03-10T01:26:43.326Z,100.74
2024-03-10T01:27:43.292Z,99.89
2024-03-10T01:28:43.396Z,99.23
2024-03-10T01:29:43.364Z,101.96
2024-03-10T01:30:43.299Z,99.90
2024-03-10T01:31:43.338Z,100.88
2024-03-10T01:32:43.447Z,100.71
2024-03-10T01:33:43.322Z,101.91
2024-03-10T01:34:43.383Z,100.83
2024-03-10T01:35:43.354Z,101.86
2024-03-10T01:36:43.354Z,102.49
2024-03-10T01:37:43.433Z,99.11
2024-03-10T01:38:43.417Z,100.82
2024-03-10T01:39:43.429Z,102.22
2024-03-10T01:40:43.477Z,100.91
2024-03-10T01:41:43.554Z,101.62
2024-03-10T01:42:43.593Z,99.46
2024-03-10T01:43:43.687Z,100.91
2024-03-10T01:44:43.760Z,99.69
2024-03-10T01:45:43.826Z,100.79
2024-03-10T01:46:43.972Z,99.26
2024-03-10T01:47:43.993Z,101.31
2024-03-10T01:48:44.016Z,102.43
2024-03-10T01:49:44.133Z,103.32
2024-03-10T01:50:44.100Z,100.09
2024-03-10T01:51:44.209Z,103.66
2024-03-10T01:52:44.300Z,100.24
2024-03-10T01:53:44.335Z,102.26
2024-03-10T01:54:44.423Z,100.77
2024-03-10T01:55:44.518Z,102.40
2024-03-10T01:56:44.562Z,102.80
2024-03-10T01:57:44.585Z,100.74
2024-03-10T01:58:44.691Z,100.90
2024-03-10T01:59:44.672Z,101.43
2024-03-10T02:00:44.763Z,101.60
2024-03-10T02:01:44.859Z,101.51
2024-03-10T02:02:45.379Z,103.19
2024-03-10T02:03:44.982Z,102.19
2024-03-10T02:04:44.987Z,101.57
2024-03-10T02:05:45.142Z,101.06
2024-03-10T02:06:45.180Z,101.93
2024-03-10T02:07:45.223Z,102.72
2024-03-10T02:08:45.275Z,100.91
2024-03-10T02:09:45.324Z,104.89
2024-03-10T02:10:45.498Z,101.43
2024-03-10T02:11:45.626Z,101.86
2024-03-10T02:12:45.515Z,101.50
2024-03-10T02:13:45.612Z,101.54
2024-03-10T02:14:45.652Z,102.52
2024-03-10T02:15:45.718Z,102.39
2024-03-10T02:16:45.813Z,101.85
2024-03-10T02:17:45.826Z,101.53
2024-03-10T02:18:45.881Z,101.07
2024-03-10T02:19:45.985Z,100.86
2024-03-10T02:20:45.988Z,102.18
2024-03-10T02:21:46.054Z,102.06
2024-03-10T02:22:46.171Z,102.84
2024-03-10T02:23:46.170Z,104.22
2024-03-10T02:24:46.221Z,101.76
2024-03-10T02:25:46.312Z,101.82
2024-03-10T02:26:46.339Z,100.25
2024-03-10T02:27:46.409Z,100.48
2024-03-10T02:28:46.452Z,101.43
2024-03-10T02:29:46.507Z,102.55
2024-03-10T02:30:46.523Z,102.88
2024-03-10T02:31:46.725Z,101.86
2024-03-10T02:32:46.712Z,101.99
2024-03-10T02:33:46.709Z,102.56
2024-03-10T02:34:46.824Z,101.70
2024-03-10T02:35:46.936Z,102.23
2024-03-10T02:36:46.993Z,100.03
2024-03-10T02:37:47.031Z,100.07
2024-03-10T02:38:47.037Z,101.04
2024-03-10T02:39:47.129Z,102.33
2024-03-10T02:40:47.286Z,101.64
2024-03-10T02:41:47.261Z,102.79
2024-03-10T02:42:47.401Z,102.06
2024-03-10T02:43:47.477Z,102.72
2024-03-10T02:44:47.491Z,102.14
2024-03-10T02:45:47.504Z,101.33
2024-03-10T02:46:47.587Z,101.35
2024-03-10T02:47:47.723Z,101.85
2024-03-10T02:48:47.734Z,101.86
2024-03-10T02:49:47.849Z,102.61
2024-03-10T02:50:47.812Z,102.16
2024-03-10T02:51:47.889Z,101.41
2024-03-10T02:52:47.982Z,101.42
2024-03-10T02:53:48.046Z,100.39
2024-03-10T02:54:48.049Z,101.65
2024-03-10T02:55:48.236Z,101.95
2024-03-10T02:56:48.184Z,102.21
2024-03-10T02:57:48.230Z,104.17
2024-03-10T02:58:48.388Z,102.03
2024-03-10T02:59:48.352Z,101.54
2024-03-10T03:00:48.406Z,104.49
2024-03-10T03:01:48.449Z,105.04
2024-03-10T03:02:48.505Z,102.42
2024-03-10T03:03:48.538Z,103.60
2024-03-10T03:04:48.677Z,104.22
2024-03-10T03:05:48.686Z,102.68
2024-03-10T03:06:48.764Z,102.64
2024-03-10T03:07:48.884Z,102.55
2024-03-10T03:08:48.866Z,103.29
2024-03-10T03:09:48.985Z,101.84
2024-03-10T03:10:49.076Z,102.02
2024-03-10T03:11:49.062Z,103.01
2024-03-10T03:12:49.165Z,102.55
2024-03-10T03:13:49.261Z,104.15
2024-03-10T03:14:49.245Z,102.88
2024-03-10T03:15:49.301Z,102.66
2024-03-10T03:16:49.480Z,103.64
2024-03-10T03:17:49.449Z,100.88
2024-03-10T03:18:49.498Z,101.79
2024-03-10T03:19:49.743Z,101.11
2024-03-10T03:20:49.637Z,103.40
2024-03-10T03:21:49.666Z,102.72
2024-03-10T03:22:49.833Z,101.95
2024-03-10T03:23:49.817Z,101.94
2024-03-10T03:24:49.855Z,102.04
2024-03-10T03:25:49.886Z,103.34
2024-03-10T03:26:50.030Z,102.07
2024-03-10T03:27:50.104Z,99.94
2024-03-10T03:28:50.080Z,103.84
2024-03-10T03:29:50.090Z,101.43
2024-03-10T03:30:50.177Z,104.09
2024-03-10T03:31:50.207Z,103.26
2024-03-10T03:32:50.285Z,101.88
2024-03-10T03:33:50.403Z,101.40
2024-03-10T03:34:50.438Z,103.70
2024-03-10T03:35:50.491Z,102.03
2024-03-10T03:36:50.568Z,102.30
2024-03-10T03:37:50.720Z,103.01
2024-03-10T03:38:50.746Z,104.09
2024-03-10T03:39:50.773Z,104.35
2024-03-10T03:40:50.932Z,103.92
2024-03-10T03:41:50.883Z,103.11
2024-03-10T03:42:50.966Z,101.69
2024-03-10T03:43:51.151Z,101.64
2024-03-10T03:44:51.258Z,102.10
2024-03-10T03:45:51.164Z,101.49
2024-03-10T03:46:51.247Z,103.93
2024-03-10T03:47:51.288Z,101.50
2024-03-10T03:48:51.341Z,104.02
2024-03-10T03:49:51.429Z,104.19
2024-03-10T03:50:51.575Z,103.83
2024-03-10T03:51:51.526Z,101.99
2024-03-10T03:52:51.696Z,102.53
2024-03-10T03:53:51.714Z,102.78
2024-03-10T03:54:51.689Z,101.25
2024-03-10T03:55:51.794Z,103.75
2024-03-10T03:56:51.810Z,104.49
2024-03-10T03:57:51.934Z,102.30
2024-03-10T03:58:51.919Z,103.61
2024-03-10T03:59:51.987Z,100.24
2024-03-10T04:00:52.105Z,102.00
2024-03-10T04:01:52.166Z,102.45
2024-03-10T04:02:52.151Z,103.67
2024-03-10T04:03:52.227Z,102.98
2024-03-10T04:04:52.321Z,103.36
2024-03-10T04:05:52.473Z,101.30
2024-03-10T04:06:52.472Z,101.65
2024-03-10T04:07:52.612Z,102.47
2024-03-10T04:08:54.653Z,100.64
2024-03-10T04:09:52.575Z,103.58
2024-03-10T04:10:52.633Z,103.39
2024-03-10T04:11:52.603Z,103.23
2024-03-10T04:12:52.561Z,102.68
2024-03-10T04:13:52.639Z,103.05
2024-03-10T04:14:52.577Z,101.20
2024-03-10T04:15:52.563Z,102.37
2024-03-10T04:16:52.576Z,101.80
2024-03-10T04:17:52.740Z,102.23
2024-03-10T04:18:52.593Z,102.63
2024-03-10T04:19:52.573Z,102.77
2024-03-10T04:20:52.648Z,102.15
2024-03-10T04:21:52.612Z,104.38
2024-03-10T04:22:52.613Z,102.75
2024-03-10T04:23:52.605Z,102.00
2024-03-10T04:24:52.638Z,101.69
2024-03-10T04:25:52.627Z,102.91
2024-03-10T04:26:52.588Z,103.46
2024-03-10T04:27:52.593Z,102.46
2024-03-10T04:28:52.587Z,99.91
2024-03-10T04:29:52.587Z,101.96
2024-03-10T04:30:52.576Z,102.57
2024-03-10T04:31:59.887Z,50.00
2024-03-10T04:33:00.002Z,50.00
2024-03-10T04:33:59.868Z,50.00
2024-03-10T04:34:59.938Z,50.00
2024-03-10T04:35:59.920Z,50.00
2024-03-10T04:36:59.912Z,52.97
2024-03-10T04:37:59.950Z,52.73
2024-03-10T04:38:59.880Z,52.38
2024-03-10T04:39:59.901Z,50.71
2024-03-10T04:40:59.917Z,51.03
2024-03-10T04:41:59.899Z,52.86
2024-03-10T04:42:59.914Z,50.00
2024-03-10T04:43:59.937Z,51.09
2024-03-10T04:44:59.917Z,53.78
2024-03-10T04:45:59.880Z,52.55
2024-03-10T04:46:59.910Z,50.18
2024-03-10T04:47:59.952Z,51.86
2024-03-10T04:48:59.882Z,52.66
2024-03-10T04:49:59.925Z,53.59
2024-03-10T04:50:59.886Z,52.48
2024-03-10T04:51:59.858Z,53.00
2024-03-10T04:52:59.915Z,53.21
2024-03-10T04:53:59.904Z,51.06
2024-03-10T04:54:59.962Z,52.89
2024-03-10T04:55:59.909Z,51.95
2024-03-10T04:56:59.854Z,52.69
2024-03-10T04:57:59.882Z,50.20
2024-03-10T04:58:59.890Z,50.46
2024-03-10T04:59:59.913Z,50.90
2024-03-10T05:01:00.022Z,53.74
2024-03-10T05:01:59.953Z,53.21
2024-03-10T05:02:59.953Z,52.47
2024-03-10T05:03:59.924Z,51.83
2024-03-10T05:04:59.975Z,50.95
2024-03-10T05:05:59.911Z,52.34
2024-03-10T05:06:59.949Z,53.22
2024-03-10T05:07:59.940Z,51.81
2024-03-10T05:08:59.904Z,51.33
2024-03-10T05:09:59.928Z,53.01
2024-03-10T05:10:59.946Z,53.24
2024-03-10T05:11:59.956Z,52.45
2024-03-10T05:12:59.884Z,52.22
2024-03-10T05:13:59.898Z,52.06
2024-03-10T05:14:59.922Z,52.24
2024-03-10T05:15:59.924Z,51.56
2024-03-10T05:16:59.965Z,52.71
2024-03-10T05:17:59.977Z,52.17
2024-03-10T05:18:59.991Z,53.22
2024-03-10T05:20:00.068Z,52.08
2024-03-10T05:21:00.055Z,53.29
2024-03-10T05:22:00.118Z,52.69
2024-03-10T05:23:00.139Z,52.25
2024-03-10T05:24:00.179Z,51.21
2024-03-10T05:25:00.220Z,52.54
2024-03-10T05:26:00.259Z,52.64
2024-03-10T05:27:00.229Z,53.34
2024-03-10T05:28:00.289Z,53.63
2024-03-10T05:29:00.408Z,51.63
2024-03-10T05:30:00.511Z,52.49
2024-03-10T05:31:00.451Z,54.06
2024-03-10T05:32:00.550Z,52.99
2024-03-10T05:33:00.548Z,52.83
2024-03-10T05:34:00.899Z,52.38
2024-03-10T05:35:00.639Z,52.22
2024-03-10T05:36:00.612Z,52.65
2024-03-10T05:37:00.647Z,52.55
2024-03-10T05:38:00.715Z,52.31
2024-03-10T05:39:00.731Z,51.99
2024-03-10T05:40:00.803Z,52.58
2024-03-10T05:41:00.857Z,53.11
2024-03-10T05:42:00.869Z,52.56
2024-03-10T05:43:00.931Z,52.36
2024-03-10T05:44:01.009Z,52.17
2024-03-10T05:45:01.051Z,52.61
2024-03-10T05:46:01.055Z,53.83
2024-03-10T05:47:03.032Z,52.60
2024-03-10T05:48:01.170Z,51.90
2024-03-10T05:49:01.117Z,52.74
2024-03-10T05:50:01.229Z,52.33
2024-03-10T05:51:01.178Z,51.42
2024-03-10T05:52:01.240Z,51.99
2024-03-10T05:53:01.251Z,52.05
2024-03-10T05:54:01.184Z,52.23
2024-03-10T05:55:01.197Z,51.69
2024-03-10T05:56:01.242Z,51.75
2024-03-10T05:57:01.280Z,52.87
2024-03-10T05:58:01.271Z,52.81
2024-03-10T05:59:01.280Z,52.38
2024-03-10T06:00:01.304Z,52.25
2024-03-10T06:01:01.411Z,51.36
2024-03-10T06:02:01.442Z,53.36
2024-03-10T06:03:01.414Z,54.15
2024-03-10T06:04:01.472Z,53.79
2024-03-10T06:05:01.530Z,54.61
2024-03-10T06:06:01.500Z,54.10
2024-03-10T06:07:01.533Z,54.72
2024-03-10T06:08:01.599Z,52.69
2024-03-10T06:09:01.632Z,54.66
2024-03-10T06:10:01.577Z,55.09
2024-03-10T06:11:01.832Z,54.41
2024-03-10T06:12:01.890Z,54.42
2024-03-10T06:13:01.803Z,54.48
2024-03-10T06:14:02.095Z,54.96
2024-03-10T06:15:01.888Z,55.06
2024-03-10T06:16:01.924Z,53.11
2024-03-10T06:17:02.035Z,54.77
2024-03-10T06:18:02.077Z,53.51
2024-03-10T06:19:02.099Z,52.98
2024-03-10T06:20:02.277Z,55.12
2024-03-10T06:21:02.109Z,56.57
2024-03-10T06:22:02.162Z,55.16
2024-03-10T06:23:02.204Z,54.69
2024-03-10T06:24:02.592Z,55.36
2024-03-10T06:25:02.305Z,55.03
2024-03-10T06:26:02.368Z,54.87
2024-03-10T06:27:02.619Z,55.63
2024-03-10T06:28:02.468Z,53.24
2024-03-10T06:29:02.595Z,55.47
2024-03-10T06:30:02.585Z,55.73
2024-03-10T06:31:02.619Z,55.00
2024-03-10T06:32:03.054Z,54.85
2024-03-10T06:33:02.734Z,55.57
2024-03-10T06:34:02.816Z,55.18
2024-03-10T06:35:02.893Z,56.11
2024-03-10T06:36:02.935Z,55.35
2024-03-10T06:37:03.073Z,55.56
2024-03-10T06:38:03.121Z,56.60
2024-03-10T06:39:03.150Z,57.56
2024-03-10T06:40:03.211Z,56.20
2024-03-10T06:41:03.289Z,54.96
2024-03-10T06:42:03.348Z,58.06
2024-03-10T06:43:03.423Z,58.16
2024-03-10T06:44:03.545Z,60.16
2024-03-10T06:45:03.538Z,59.11
2024-03-10T06:46:03.653Z,58.26
2024-03-10T06:47:03.714Z,57.49
2024-03-10T06:48:03.756Z,57.77
2024-03-10T06:49:03.796Z,57.62
2024-03-10T06:50:03.931Z,57.31
2024-03-10T06:51:03.894Z,58.10
2024-03-10T06:52:03.925Z,57.76
2024-03-10T06:53:04.031Z,58.78
2024-03-10T06:54:04.070Z,55.91
2024-03-10T06:55:04.125Z,56.69
2024-03-10T06:56:04.255Z,52.21
2024-03-10T06:57:04.255Z,53.81
2024-03-10T06:58:04.317Z,56.35
2024-03-10T06:59:04.340Z,60.42
2024-03-10T07:00:04.322Z,63.76
2024-03-10T07:01:04.358Z,64.70
2024-03-10T07:02:04.486Z,66.10
2024-03-10T07:03:04.616Z,66.12
2024-03-10T07:04:04.507Z,68.17
2024-03-10T07:05:04.612Z,65.59
2024-03-10T07:06:04.595Z,65.40
2024-03-10T07:07:04.600Z,65.05
2024-03-10T07:08:04.722Z,67.22
2024-03-10T07:09:04.685Z,65.24
2024-03-10T07:10:04.737Z,66.71
2024-03-10T07:11:04.935Z,64.96
2024-03-10T07:12:04.973Z,66.56
2024-03-10T07:13:04.951Z,67.08
2024-03-10T07:14:04.985Z,65.67
2024-03-10T07:15:04.975Z,64.57
2024-03-10T07:16:05.046Z,66.11
2024-03-10T07:17:05.223Z,64.43
2024-03-10T07:18:05.124Z,57.92
2024-03-10T07:19:05.167Z,59.91
2024-03-10T07:20:05.270Z,59.40
2024-03-10T07:21:05.233Z,55.56
2024-03-10T07:22:05.274Z,55.99
2024-03-10T07:23:05.368Z,58.54
2024-03-10T07:24:05.333Z,59.75
2024-03-10T07:25:05.301Z,60.98
2024-03-10T07:26:05.364Z,62.08
2024-03-10T07:27:05.327Z,65.09
2024-03-10T07:28:05.367Z,65.67
2024-03-10T07:29:05.377Z,65.33
2024-03-10T07:30:05.389Z,67.18
2024-03-10T07:31:05.385Z,67.52
2024-03-10T07:32:05.485Z,70.67
2024-03-10T07:33:05.495Z,70.22
2024-03-10T07:34:05.514Z,70.08
2024-03-10T07:35:05.594Z,72.28
2024-03-10T07:36:05.629Z,73.55
2024-03-10T07:37:05.748Z,74.68
2024-03-10T07:38:05.782Z,71.96
2024-03-10T07:39:05.807Z,72.99
2024-03-10T07:40:05.882Z,72.99
2024-03-10T07:41:06.031Z,69.04
2024-03-10T07:42:06.039Z,69.47
2024-03-10T07:43:06.068Z,69.00
2024-03-10T07:44:06.140Z,68.92
2024-03-10T07:45:06.188Z,67.13
2024-03-10T07:46:06.223Z,71.63
2024-03-10T07:47:06.356Z,69.39
2024-03-10T07:48:06.371Z,70.99
2024-03-10T07:49:06.385Z,68.71
2024-03-10T07:50:06.516Z,69.85
2024-03-10T07:51:06.456Z,69.02
2024-03-10T07:52:06.498Z,68.58
2024-03-10T07:53:06.556Z,68.19
2024-03-10T07:54:06.543Z,67.53
2024-03-10T07:55:06.641Z,69.96
2024-03-10T07:56:06.684Z,70.25
2024-03-10T07:57:06.677Z,69.65
2024-03-10T07:58:06.766Z,67.96
2024-03-10T07:59:06.875Z,71.25
2024-03-10T08:00:06.877Z,73.39
2024-03-10T08:01:06.988Z,69.84
2024-03-10T08:02:06.998Z,71.28
2024-03-10T08:03:07.009Z,73.46
2024-03-10T08:04:07.029Z,73.05
2024-03-10T08:05:07.190Z,71.61
2024-03-10T08:06:07.228Z,72.97
2024-03-10T08:07:07.275Z,68.34
2024-03-10T08:08:07.350Z,70.04
2024-03-10T08:09:07.430Z,69.77
2024-03-10T08:10:07.457Z,67.71
2024-03-10T08:11:07.532Z,69.33
2024-03-10T08:12:07.686Z,70.97
2024-03-10T08:13:07.614Z,71.84
2024-03-10T08:14:07.743Z,69.20
2024-03-10T08:15:07.815Z,70.76
2024-03-10T08:16:07.831Z,71.39
2024-03-10T08:17:07.906Z,68.54
2024-03-10T08:18:08.031Z,70.64
2024-03-10T08:19:08.030Z,69.59
2024-03-10T08:20:08.187Z,69.17
2024-03-10T08:21:08.150Z,65.63
2024-03-10T08:22:08.262Z,66.22
2024-03-10T08:23:08.258Z,67.48
2024-03-10T08:24:08.300Z,65.46
2024-03-10T08:25:08.314Z,73.90
2024-03-10T08:26:08.401Z,65.56
2024-03-10T08:27:08.396Z,68.83
2024-03-10T08:28:08.397Z,64.39
2024-03-10T08:29:08.528Z,63.95
2024-03-10T08:30:08.440Z,66.75
2024-03-10T08:31:08.449Z,66.71
2024-03-10T08:32:08.488Z,68.00
2024-03-10T08:33:08.519Z,60.28
2024-03-10T08:34:08.500Z,70.04
2024-03-10T08:35:10.777Z,65.79
2024-03-10T08:36:08.550Z,64.04
2024-03-10T08:37:08.536Z,65.97
2024-03-10T08:38:08.540Z,65.63
2024-03-10T08:39:08.541Z,61.06
2024-03-10T08:40:08.562Z,62.80
2024-03-10T08:41:08.588Z,63.62
2024-03-10T08:42:08.523Z,66.45
2024-03-10T08:43:08.568Z,63.04
2024-03-10T08:44:08.613Z,64.74
2024-03-10T08:45:08.546Z,63.64
2024-03-10T08:46:08.533Z,62.01
2024-03-10T08:47:08.651Z,61.36
2024-03-10T08:48:08.610Z,69.28
2024-03-10T08:49:08.563Z,63.09
2024-03-10T08:50:08.612Z,67.56
2024-03-10T08:51:08.518Z,70.71
2024-03-10T08:52:08.571Z,64.82
2024-03-10T08:53:08.608Z,65.70
2024-03-10T08:54:08.526Z,69.48
2024-03-10T08:55:08.603Z,65.78
2024-03-10T08:56:08.582Z,68.81
2024-03-10T08:57:08.531Z,65.79
2024-03-10T08:58:08.557Z,66.40
2024-03-10T08:59:08.633Z,65.92
2024-03-10T09:00:08.579Z,62.29
2024-03-10T09:01:08.604Z,66.61
2024-03-10T09:02:08.665Z,65.04
2024-03-10T09:03:08.651Z,61.47
2024-03-10T09:04:08.655Z,65.80
2024-03-10T09:05:08.649Z,61.43
2024-03-10T09:06:08.617Z,62.83
2024-03-10T09:07:08.576Z,68.87
2024-03-10T09:08:08.611Z,59.92
2024-03-10T09:09:08.621Z,63.39
2024-03-10T09:10:08.796Z,60.55
2024-03-10T09:11:08.720Z,66.34
2024-03-10T09:12:08.718Z,63.01
2024-03-10T09:13:08.614Z,62.89
2024-03-10T09:14:08.595Z,66.89
2024-03-10T09:15:08.640Z,61.29
2024-03-10T09:16:08.634Z,62.89
2024-03-10T09:17:08.678Z,63.32
2024-03-10T09:18:08.605Z,63.59
2024-03-10T09:19:08.653Z,64.09
2024-03-10T09:20:08.751Z,60.71
2024-03-10T09:21:08.664Z,59.64
2024-03-10T09:22:08.616Z,64.55
2024-03-10T09:23:08.717Z,66.70
2024-03-10T09:24:08.610Z,63.45
2024-03-10T09:25:08.638Z,65.80
2024-03-10T09:26:08.674Z,60.74
2024-03-10T09:27:08.643Z,63.15
2024-03-10T09:28:08.606Z,59.31
2024-03-10T09:29:08.625Z,63.34
2024-03-10T09:30:08.676Z,61.50
2024-03-10T09:31:10.713Z,60.39
2024-03-10T09:32:08.739Z,65.93
2024-03-10T09:33:08.787Z,63.79
2024-03-10T09:34:08.821Z,64.91
2024-03-10T09:35:08.943Z,67.62
2024-03-10T09:36:08.916Z,64.87
2024-03-10T09:37:09.001Z,63.65
2024-03-10T09:38:09.046Z,65.05
2024-03-10T09:39:09.147Z,63.22
2024-03-10T09:40:09.153Z,65.03
2024-03-10T09:41:09.298Z,64.38
2024-03-10T09:42:09.315Z,64.82
2024-03-10T09:43:09.323Z,65.09
2024-03-10T09:44:09.455Z,65.84
2024-03-10T09:45:09.488Z,66.17
2024-03-10T09:46:09.539Z,61.84
2024-03-10T09:47:09.640Z,65.54
2024-03-10T09:48:09.669Z,64.72
2024-03-10T09:49:09.738Z,64.30
2024-03-10T09:50:09.873Z,65.13
2024-03-10T09:51:09.890Z,65.94
2024-03-10T09:52:09.950Z,66.26
2024-03-10T09:53:10.287Z,64.15
2024-03-10T09:54:10.063Z,64.79
2024-03-10T09:55:10.131Z,63.39
2024-03-10T09:56:10.255Z,65.84
2024-03-10T09:57:10.308Z,63.51
2024-03-10T09:58:10.383Z,64.58
2024-03-10T09:59:10.397Z,62.55
2024-03-10T10:00:10.465Z,63.46
2024-03-10T10:01:10.539Z,65.34
2024-03-10T10:02:10.622Z,65.18
2024-03-10T10:03:10.638Z,63.32
2024-03-10T10:04:10.717Z,65.41
2024-03-10T10:05:10.819Z,64.40
2024-03-10T10:06:10.850Z,67.95
2024-03-10T10:07:10.937Z,65.68
2024-03-10T10:08:11.043Z,62.08
2024-03-10T10:09:11.057Z,64.14
2024-03-10T10:10:11.148Z,67.21
2024-03-10T10:11:11.239Z,65.78
2024-03-10T10:12:11.349Z,65.85
2024-03-10T10:13:11.430Z,66.92
2024-03-10T10:14:11.541Z,66.13
2024-03-10T10:15:11.479Z,65.56
2024-03-10T10:16:11.614Z,65.00
2024-03-10T10:17:11.630Z,65.15
2024-03-10T10:18:11.735Z,63.84
2024-03-10T10:19:11.828Z,65.37
2024-03-10T10:20:11.818Z,65.84
2024-03-10T10:21:11.877Z,65.07
2024-03-10T10:22:11.946Z,65.69
2024-03-10T10:23:12.103Z,63.41
2024-03-10T10:24:12.062Z,64.38
2024-03-10T10:25:12.960Z,65.33
2024-03-10T10:26:12.286Z,66.47
2024-03-10T10:27:12.249Z,64.69
2024-03-10T10:28:12.373Z,67.32
2024-03-10T10:29:12.431Z,64.91
2024-03-10T10:30:12.513Z,65.79
2024-03-10T10:31:12.614Z,64.66
2024-03-10T10:32:12.695Z,67.84
2024-03-10T10:33:12.878Z,66.06
2024-03-10T10:34:12.738Z,65.03
2024-03-10T10:35:12.799Z,66.99
2024-03-10T10:36:12.904Z,67.51
2024-03-10T10:37:12.865Z,69.57
2024-03-10T10:38:13.153Z,68.24
2024-03-10T10:39:13.019Z,68.59
2024-03-10T10:40:13.208Z,67.67
2024-03-10T10:41:13.206Z,69.04
2024-03-10T10:42:21.736Z,67.11
2024-03-10T10:43:14.207Z,67.22
2024-03-10T10:44:13.304Z,67.33
2024-03-10T10:45:13.298Z,67.34
2024-03-10T10:46:13.269Z,68.25
2024-03-10T10:47:13.208Z,69.12
2024-03-10T10:48:13.267Z,69.70
2024-03-10T10:49:13.212Z,66.75
2024-03-10T10:50:13.347Z,68.50
2024-03-10T10:51:13.381Z,68.80
2024-03-10T10:52:13.408Z,68.13
2024-03-10T10:53:14.097Z,68.50
2024-03-10T10:54:13.974Z,65.50
2024-03-10T10:55:13.602Z,67.43
2024-03-10T10:56:13.682Z,67.86
2024-03-10T10:57:13.709Z,65.71
2024-03-10T10:58:13.774Z,65.74
2024-03-10T10:59:13.952Z,65.25
2024-03-10T11:00:13.910Z,63.49
2024-03-10T11:01:14.083Z,62.23
2024-03-10T11:02:14.174Z,66.61
2024-03-10T11:03:14.102Z,62.16
2024-03-10T11:04:14.212Z,59.26
2024-03-10T11:05:14.314Z,60.04
2024-03-10T11:06:14.331Z,59.97
2024-03-10T11:07:14.412Z,56.71
2024-03-10T11:08:14.537Z,57.58
2024-03-10T11:09:14.724Z,55.47
2024-03-10T11:10:14.576Z,55.55
2024-03-10T11:11:14.695Z,55.06
2024-03-10T11:12:14.806Z,54.63
2024-03-10T11:13:14.798Z,54.29
2024-03-10T11:14:15.061Z,52.81
2024-03-10T11:15:14.990Z,53.30
2024-03-10T11:16:15.026Z,53.70
2024-03-10T11:17:15.076Z,50.90
2024-03-10T11:18:15.095Z,52.92
2024-03-10T11:19:15.402Z,49.84
2024-03-10T11:20:15.304Z,50.81
2024-03-10T11:21:15.314Z,51.70
2024-03-10T11:22:15.361Z,52.88
2024-03-10T11:23:15.463Z,52.96
2024-03-10T11:24:15.490Z,51.12
2024-03-10T11:25:15.548Z,50.02
2024-03-10T11:26:15.680Z,52.01
2024-03-10T11:27:15.710Z,52.45
2024-03-10T11:28:15.757Z,52.02
2024-03-10T11:29:15.846Z,53.48
2024-03-10T11:30:15.885Z,52.33
2024-03-10T11:31:15.936Z,51.14
2024-03-10T11:32:16.062Z,50.67
2024-03-10T11:33:16.138Z,53.90
2024-03-10T11:34:16.127Z,52.38
2024-03-10T11:35:16.233Z,53.19
2024-03-10T11:36:16.232Z,51.57
2024-03-10T11:37:16.302Z,52.33
2024-03-10T11:38:16.391Z,54.65
2024-03-10T11:39:16.401Z,52.35
2024-03-10T11:40:16.463Z,52.19
2024-03-10T11:41:16.538Z,53.20
2024-03-10T11:42:16.619Z,50.51
2024-03-10T11:43:16.710Z,51.31
2024-03-10T11:44:16.709Z,50.00
2024-03-10T11:45:16.816Z,52.88
2024-03-10T11:46:16.855Z,51.54
2024-03-10T11:47:16.941Z,51.45
2024-03-10T11:48:17.012Z,50.92
2024-03-10T11:49:17.020Z,51.37
2024-03-10T11:50:17.134Z,51.50
2024-03-10T11:51:17.142Z,50.00
2024-03-10T11:52:17.209Z,52.58
2024-03-10T11:53:17.336Z,52.52
2024-03-10T11:54:17.333Z,50.52
2024-03-10T11:55:17.394Z,52.49
2024-03-10T11:56:17.568Z,51.67
2024-03-10T11:57:17.745Z,52.00
2024-03-10T11:58:17.613Z,52.62
2024-03-10T11:59:17.654Z,51.14
2024-03-10T12:00:17.776Z,52.38
2024-03-10T12:01:17.855Z,54.37
2024-03-10T12:02:17.875Z,52.01
2024-03-10T12:03:17.906Z,52.63
2024-03-10T12:04:17.964Z,51.63
2024-03-10T12:05:18.038Z,52.13
2024-03-10T12:06:18.116Z,53.48
2024-03-10T12:07:18.131Z,51.80
2024-03-10T12:08:18.291Z,51.01
2024-03-10T12:09:18.238Z,51.09
2024-03-10T12:10:18.357Z,50.29
2024-03-10T12:11:18.440Z,51.27
2024-03-10T12:12:18.500Z,52.47
2024-03-10T12:13:18.492Z,53.46
2024-03-10T12:14:18.696Z,52.02
2024-03-10T12:15:18.754Z,52.62
2024-03-10T12:16:18.698Z,52.44
2024-03-10T12:17:18.790Z,55.16
2024-03-10T12:18:18.830Z,53.23
2024-03-10T12:19:18.891Z,53.04
2024-03-10T12:20:19.080Z,53.64
2024-03-10T12:21:19.010Z,53.69
2024-03-10T12:22:19.047Z,52.71
2024-03-10T12:23:19.156Z,56.00
2024-03-10T12:24:19.219Z,53.07
2024-03-10T12:25:19.635Z,55.04
2024-03-10T12:26:19.317Z,52.45
2024-03-10T12:27:19.341Z,53.56
2024-03-10T12:28:19.440Z,51.94
2024-03-10T12:29:19.508Z,54.00
2024-03-10T12:30:19.620Z,53.03
2024-03-10T12:31:19.620Z,52.44
2024-03-10T12:32:19.755Z,51.17
2024-03-10T12:33:19.727Z,52.88
2024-03-10T12:34:19.815Z,53.89
2024-03-10T12:35:19.879Z,54.94
2024-03-10T12:36:19.906Z,53.64
2024-03-10T12:37:21.386Z,52.93
2024-03-10T12:38:20.054Z,52.81
2024-03-10T12:39:20.133Z,52.07
2024-03-10T12:40:20.190Z,52.65
2024-03-10T12:41:20.326Z,54.06
2024-03-10T12:42:20.308Z,53.34
2024-03-10T12:43:20.337Z,52.97
2024-03-10T12:44:20.422Z,52.37
2024-03-10T12:45:20.489Z,52.48
2024-03-10T12:46:20.505Z,52.07
2024-03-10T12:47:20.590Z,51.85